sensor_id;sensor_type;location;lat;lon;timestamp;temperature;humidity
2112;DHT22;1062;52.538;13.400;2023-05-02T00:02:03;14.30;88.90
2112;DHT22;1062;52.538;13.400;2023-05-02T00:04:28;14.30;88.90
2112;DHT22;1062;52.538;13.400;2023-05-02T00:06:54;14.20;89.20
2112;DHT22;1062;52.538;13.400;2023-05-02T00:09:20;14.10;89.20
2112;DHT22;1062;52.538;13.400;2023-05-02T00:11:46;14.10;89.70
2112;DHT22;1062;52.538;13.400;2023-05-02T00:14:11;14.00;90.00
2112;DHT22;1062;52.538;13.400;2023-05-02T00:16:37;13.90;90.10
2112;DHT22;1062;52.538;13.400;2023-05-02T00:19:03;13.80;90.20
2112;DHT22;1062;52.538;13.400;2023-05-02T00:21:28;13.70;90.80
2112;DHT22;1062;52.538;13.400;2023-05-02T00:23:55;13.60;90.80
2112;DHT22;1062;52.538;13.400;2023-05-02T00:26:22;13.60;90.90
2112;DHT22;1062;52.538;13.400;2023-05-02T00:28:47;13.50;90.90
2112;DHT22;1062;52.538;13.400;2023-05-02T00:31:13;13.50;91.20
2112;DHT22;1062;52.538;13.400;2023-05-02T00:33:39;13.50;91.30
2112;DHT22;1062;52.538;13.400;2023-05-02T00:36:12;13.40;91.40
2112;DHT22;1062;52.538;13.400;2023-05-02T00:38:38;13.40;91.50
2112;DHT22;1062;52.538;13.400;2023-05-02T00:41:04;13.30;91.80
2112;DHT22;1062;52.538;13.400;2023-05-02T00:43:30;13.30;91.70
2112;DHT22;1062;52.538;13.400;2023-05-02T00:45:56;13.20;91.90
2112;DHT22;1062;52.538;13.400;2023-05-02T00:48:21;13.20;92.10
2112;DHT22;1062;52.538;13.400;2023-05-02T00:50:47;13.10;92.30
2112;DHT22;1062;52.538;13.400;2023-05-02T00:53:13;13.10;92.40
2112;DHT22;1062;52.538;13.400;2023-05-02T00:55:39;13.20;92.40
2112;DHT22;1062;52.538;13.400;2023-05-02T00:58:15;13.20;92.20
2112;DHT22;1062;52.538;13.400;2023-05-02T01:09:07;13.30;92.70
2112;DHT22;1062;52.538;13.400;2023-05-02T01:12:01;13.20;92.80
2112;DHT22;1062;52.538;13.400;2023-05-02T01:14:30;13.20;93.20
2112;DHT22;1062;52.538;13.400;2023-05-02T01:17:01;13.10;93.50
2112;DHT22;1062;52.538;13.400;2023-05-02T01:19:33;13.20;93.90
2112;DHT22;1062;52.538;13.400;2023-05-02T01:22:02;13.10;94.00
2112;DHT22;1062;52.538;13.400;2023-05-02T01:24:34;13.00;94.40
2112;DHT22;1062;52.538;13.400;2023-05-02T01:29:56;13.00;95.20
2112;DHT22;1062;52.538;13.400;2023-05-02T01:32:23;13.00;95.70
2112;DHT22;1062;52.538;13.400;2023-05-02T01:34:50;13.10;95.90
2112;DHT22;1062;52.538;13.400;2023-05-02T01:37:18;13.10;96.00
2112;DHT22;1062;52.538;13.400;2023-05-02T01:39:45;13.10;96.30
2112;DHT22;1062;52.538;13.400;2023-05-02T01:42:14;13.00;96.40
2112;DHT22;1062;52.538;13.400;2023-05-02T01:44:40;13.00;96.60
2112;DHT22;1062;52.538;13.400;2023-05-02T01:47:08;13.00;97.00
2112;DHT22;1062;52.538;13.400;2023-05-02T01:49:34;12.90;97.10
2112;DHT22;1062;52.538;13.400;2023-05-02T01:52:07;12.90;97.30
2112;DHT22;1062;52.538;13.400;2023-05-02T01:54:36;12.80;97.70
2112;DHT22;1062;52.538;13.400;2023-05-02T01:57:05;12.70;98.00
2112;DHT22;1062;52.538;13.400;2023-05-02T01:59:32;12.70;98.30
2112;DHT22;1062;52.538;13.400;2023-05-02T02:02:00;12.60;98.50
2112;DHT22;1062;52.538;13.400;2023-05-02T02:04:27;12.50;98.90
2112;DHT22;1062;52.538;13.400;2023-05-02T02:07:05;12.50;99.30
2112;DHT22;1062;52.538;13.400;2023-05-02T02:09:32;12.40;99.40
2112;DHT22;1062;52.538;13.400;2023-05-02T02:14:41;12.40;99.90
2112;DHT22;1062;52.538;13.400;2023-05-02T02:17:14;12.40;99.90
2112;DHT22;1062;52.538;13.400;2023-05-02T02:19:41;12.40;99.90
2112;DHT22;1062;52.538;13.400;2023-05-02T02:22:07;12.40;99.90
2112;DHT22;1062;52.538;13.400;2023-05-02T02:24:35;12.30;99.90
2112;DHT22;1062;52.538;13.400;2023-05-02T02:27:02;12.30;99.90
2112;DHT22;1062;52.538;13.400;2023-05-02T02:29:28;12.20;99.90
2112;DHT22;1062;52.538;13.400;2023-05-02T02:31:54;12.20;99.90
2112;DHT22;1062;52.538;13.400;2023-05-02T02:34:20;12.10;99.90
2112;DHT22;1062;52.538;13.400;2023-05-02T02:37:10;12.00;99.90
2112;DHT22;1062;52.538;13.400;2023-05-02T02:39:50;11.90;99.90
2112;DHT22;1062;52.538;13.400;2023-05-02T02:42:31;11.90;99.90
2112;DHT22;1062;52.538;13.400;2023-05-02T02:51:09;11.70;99.90
2112;DHT22;1062;52.538;13.400;2023-05-02T02:56:18;11.50;99.90
2112;DHT22;1062;52.538;13.400;2023-05-02T02:58:56;11.50;99.90
2112;DHT22;1062;52.538;13.400;2023-05-02T03:01:26;11.40;99.90
2112;DHT22;1062;52.538;13.400;2023-05-02T03:03:56;11.40;99.90
2112;DHT22;1062;52.538;13.400;2023-05-02T03:06:23;11.30;99.90
2112;DHT22;1062;52.538;13.400;2023-05-02T03:08:48;11.30;99.90
2112;DHT22;1062;52.538;13.400;2023-05-02T03:11:14;11.20;99.90
2112;DHT22;1062;52.538;13.400;2023-05-02T03:13:41;11.10;99.90
2112;DHT22;1062;52.538;13.400;2023-05-02T03:16:35;11.20;99.90
2112;DHT22;1062;52.538;13.400;2023-05-02T03:19:04;11.10;99.90
2112;DHT22;1062;52.538;13.400;2023-05-02T03:21:31;11.10;99.90
2112;DHT22;1062;52.538;13.400;2023-05-02T03:24:01;11.00;99.90
2112;DHT22;1062;52.538;13.400;2023-05-02T03:26:27;10.90;99.90
2112;DHT22;1062;52.538;13.400;2023-05-02T03:28:53;10.90;99.90
2112;DHT22;1062;52.538;13.400;2023-05-02T03:31:19;10.90;99.90
2112;DHT22;1062;52.538;13.400;2023-05-02T03:33:46;10.80;99.90
2112;DHT22;1062;52.538;13.400;2023-05-02T03:36:12;10.80;99.90
2112;DHT22;1062;52.538;13.400;2023-05-02T03:38:37;10.80;99.90
2112;DHT22;1062;52.538;13.400;2023-05-02T03:41:03;10.90;99.90
2112;DHT22;1062;52.538;13.400;2023-05-02T03:43:29;10.90;99.90
2112;DHT22;1062;52.538;13.400;2023-05-02T03:45:55;10.80;99.90
2112;DHT22;1062;52.538;13.400;2023-05-02T03:48:21;10.80;99.90
2112;DHT22;1062;52.538;13.400;2023-05-02T03:50:46;10.80;99.90
2112;DHT22;1062;52.538;13.400;2023-05-02T03:53:12;10.90;99.90
2112;DHT22;1062;52.538;13.400;2023-05-02T03:55:39;10.90;99.90
2112;DHT22;1062;52.538;13.400;2023-05-02T03:58:05;10.90;99.90
2112;DHT22;1062;52.538;13.400;2023-05-02T04:00:31;10.80;99.90
2112;DHT22;1062;52.538;13.400;2023-05-02T04:02:56;10.80;99.90
2112;DHT22;1062;52.538;13.400;2023-05-02T04:05:22;10.90;99.90
2112;DHT22;1062;52.538;13.400;2023-05-02T04:07:48;10.80;99.90
2112;DHT22;1062;52.538;13.400;2023-05-02T04:10:13;10.80;99.90
2112;DHT22;1062;52.538;13.400;2023-05-02T04:12:42;10.80;99.90
2112;DHT22;1062;52.538;13.400;2023-05-02T04:15:09;10.90;99.90
2112;DHT22;1062;52.538;13.400;2023-05-02T04:17:35;10.80;99.90
2112;DHT22;1062;52.538;13.400;2023-05-02T04:20:00;10.80;99.90
2112;DHT22;1062;52.538;13.400;2023-05-02T04:22:26;10.80;99.90
2112;DHT22;1062;52.538;13.400;2023-05-02T04:24:52;10.90;99.90
2112;DHT22;1062;52.538;13.400;2023-05-02T04:27:18;10.90;99.90
2112;DHT22;1062;52.538;13.400;2023-05-02T04:29:47;10.90;99.90
2112;DHT22;1062;52.538;13.400;2023-05-02T04:32:13;11.00;99.90
2112;DHT22;1062;52.538;13.400;2023-05-02T04:37:07;11.10;99.90
2112;DHT22;1062;52.538;13.400;2023-05-02T04:39:33;11.10;99.90
2112;DHT22;1062;52.538;13.400;2023-05-02T04:41:59;11.20;99.90
2112;DHT22;1062;52.538;13.400;2023-05-02T04:44:24;11.20;99.90
2112;DHT22;1062;52.538;13.400;2023-05-02T04:46:50;11.30;99.90
2112;DHT22;1062;52.538;13.400;2023-05-02T04:49:16;11.30;99.90
2112;DHT22;1062;52.538;13.400;2023-05-02T04:51:41;11.40;99.90
2112;DHT22;1062;52.538;13.400;2023-05-02T04:54:07;11.50;99.90
2112;DHT22;1062;52.538;13.400;2023-05-02T04:56:33;11.50;99.90
2112;DHT22;1062;52.538;13.400;2023-05-02T04:58:58;11.60;99.90
2112;DHT22;1062;52.538;13.400;2023-05-02T05:01:24;11.60;99.90
2112;DHT22;1062;52.538;13.400;2023-05-02T05:03:52;11.70;99.90
2112;DHT22;1062;52.538;13.400;2023-05-02T05:06:18;11.80;99.90
2112;DHT22;1062;52.538;13.400;2023-05-02T05:08:44;11.80;99.90
2112;DHT22;1062;52.538;13.400;2023-05-02T05:11:10;12.00;99.90
2112;DHT22;1062;52.538;13.400;2023-05-02T05:13:35;12.10;99.90
2112;DHT22;1062;52.538;13.400;2023-05-02T05:16:02;12.20;99.90
2112;DHT22;1062;52.538;13.400;2023-05-02T05:18:28;12.10;99.90
2112;DHT22;1062;52.538;13.400;2023-05-02T05:20:53;12.20;99.90
2112;DHT22;1062;52.538;13.400;2023-05-02T05:23:19;12.00;99.90
2112;DHT22;1062;52.538;13.400;2023-05-02T05:25:45;12.10;99.90
2112;DHT22;1062;52.538;13.400;2023-05-02T05:28:10;12.30;99.90
2112;DHT22;1062;52.538;13.400;2023-05-02T05:30:37;12.30;99.90
2112;DHT22;1062;52.538;13.400;2023-05-02T05:33:02;12.40;99.90
2112;DHT22;1062;52.538;13.400;2023-05-02T05:35:28;12.50;99.90
2112;DHT22;1062;52.538;13.400;2023-05-02T05:37:54;12.60;99.90
2112;DHT22;1062;52.538;13.400;2023-05-02T05:40:19;13.00;99.90
2112;DHT22;1062;52.538;13.400;2023-05-02T05:42:45;12.80;99.90
2112;DHT22;1062;52.538;13.400;2023-05-02T05:45:11;13.30;99.90
2112;DHT22;1062;52.538;13.400;2023-05-02T05:47:37;13.80;99.90
2112;DHT22;1062;52.538;13.400;2023-05-02T05:50:02;14.40;99.90
2112;DHT22;1062;52.538;13.400;2023-05-02T05:52:28;14.70;99.90
2112;DHT22;1062;52.538;13.400;2023-05-02T05:54:54;14.50;99.90
2112;DHT22;1062;52.538;13.400;2023-05-02T05:57:21;15.10;99.90
2112;DHT22;1062;52.538;13.400;2023-05-02T05:59:47;14.90;99.90
2112;DHT22;1062;52.538;13.400;2023-05-02T06:02:13;15.10;99.90
2112;DHT22;1062;52.538;13.400;2023-05-02T06:04:39;15.60;99.90
2112;DHT22;1062;52.538;13.400;2023-05-02T06:07:05;16.40;99.90
2112;DHT22;1062;52.538;13.400;2023-05-02T06:09:31;15.90;99.90
2112;DHT22;1062;52.538;13.400;2023-05-02T06:11:56;16.50;99.90
2112;DHT22;1062;52.538;13.400;2023-05-02T06:14:22;16.60;99.90
2112;DHT22;1062;52.538;13.400;2023-05-02T06:16:48;16.30;99.90
2112;DHT22;1062;52.538;13.400;2023-05-02T06:19:14;15.90;99.90
2112;DHT22;1062;52.538;13.400;2023-05-02T06:21:40;16.80;99.90
2112;DHT22;1062;52.538;13.400;2023-05-02T06:24:05;17.30;99.90
2112;DHT22;1062;52.538;13.400;2023-05-02T06:26:31;18.10;99.90
2112;DHT22;1062;52.538;13.400;2023-05-02T06:28:57;18.10;99.90
2112;DHT22;1062;52.538;13.400;2023-05-02T06:31:22;18.40;99.90
2112;DHT22;1062;52.538;13.400;2023-05-02T06:33:48;18.60;99.90
2112;DHT22;1062;52.538;13.400;2023-05-02T06:36:14;18.50;99.90
2112;DHT22;1062;52.538;13.400;2023-05-02T06:38:39;18.20;99.90
2112;DHT22;1062;52.538;13.400;2023-05-02T06:41:05;18.80;99.90
2112;DHT22;1062;52.538;13.400;2023-05-02T06:43:30;18.80;99.90
2112;DHT22;1062;52.538;13.400;2023-05-02T06:45:57;18.10;99.90
2112;DHT22;1062;52.538;13.400;2023-05-02T06:48:23;18.10;99.90
2112;DHT22;1062;52.538;13.400;2023-05-02T06:50:50;19.20;99.90
2112;DHT22;1062;52.538;13.400;2023-05-02T06:53:16;19.60;99.90
2112;DHT22;1062;52.538;13.400;2023-05-02T06:55:43;19.80;99.90
2112;DHT22;1062;52.538;13.400;2023-05-02T06:58:08;20.00;99.90
2112;DHT22;1062;52.538;13.400;2023-05-02T07:00:34;20.10;99.90
2112;DHT22;1062;52.538;13.400;2023-05-02T07:03:00;19.80;99.90
2112;DHT22;1062;52.538;13.400;2023-05-02T07:05:25;19.00;99.90
2112;DHT22;1062;52.538;13.400;2023-05-02T07:07:51;19.80;99.90
2112;DHT22;1062;52.538;13.400;2023-05-02T07:10:16;19.70;99.90
2112;DHT22;1062;52.538;13.400;2023-05-02T07:12:42;19.90;99.90
2112;DHT22;1062;52.538;13.400;2023-05-02T07:15:08;20.00;99.90
2112;DHT22;1062;52.538;13.400;2023-05-02T07:17:34;19.50;99.90
2112;DHT22;1062;52.538;13.400;2023-05-02T07:20:00;19.10;99.90
2112;DHT22;1062;52.538;13.400;2023-05-02T07:22:25;18.50;99.90
2112;DHT22;1062;52.538;13.400;2023-05-02T07:24:59;18.60;99.90
2112;DHT22;1062;52.538;13.400;2023-05-02T07:27:25;18.20;99.90
2112;DHT22;1062;52.538;13.400;2023-05-02T07:29:50;18.30;99.90
2112;DHT22;1062;52.538;13.400;2023-05-02T07:32:16;19.00;99.90
2112;DHT22;1062;52.538;13.400;2023-05-02T07:34:41;18.90;99.90
2112;DHT22;1062;52.538;13.400;2023-05-02T07:37:08;18.40;99.90
2112;DHT22;1062;52.538;13.400;2023-05-02T07:39:33;17.80;99.90
2112;DHT22;1062;52.538;13.400;2023-05-02T07:41:59;17.50;99.90
2112;DHT22;1062;52.538;13.400;2023-05-02T07:44:25;17.60;99.90
2112;DHT22;1062;52.538;13.400;2023-05-02T07:46:51;17.60;99.90
2112;DHT22;1062;52.538;13.400;2023-05-02T07:49:18;17.60;99.90
2112;DHT22;1062;52.538;13.400;2023-05-02T07:51:43;17.30;99.90
2112;DHT22;1062;52.538;13.400;2023-05-02T07:54:21;17.60;99.90
2112;DHT22;1062;52.538;13.400;2023-05-02T07:56:47;17.30;99.90
2112;DHT22;1062;52.538;13.400;2023-05-02T07:59:13;17.10;99.90
2112;DHT22;1062;52.538;13.400;2023-05-02T08:01:40;16.90;99.90
2112;DHT22;1062;52.538;13.400;2023-05-02T08:04:06;16.30;99.90
2112;DHT22;1062;52.538;13.400;2023-05-02T08:06:32;16.00;99.90
2112;DHT22;1062;52.538;13.400;2023-05-02T08:08:57;16.30;99.90
2112;DHT22;1062;52.538;13.400;2023-05-02T08:11:23;16.20;99.90
2112;DHT22;1062;52.538;13.400;2023-05-02T08:13:53;15.50;99.90
2112;DHT22;1062;52.538;13.400;2023-05-02T08:16:19;15.50;99.90
2112;DHT22;1062;52.538;13.400;2023-05-02T08:18:45;15.00;99.90
2112;DHT22;1062;52.538;13.400;2023-05-02T08:21:10;15.20;99.90
2112;DHT22;1062;52.538;13.400;2023-05-02T08:23:36;15.50;99.90
2112;DHT22;1062;52.538;13.400;2023-05-02T08:26:03;15.70;99.90
2112;DHT22;1062;52.538;13.400;2023-05-02T08:28:29;15.80;99.90
2112;DHT22;1062;52.538;13.400;2023-05-02T08:30:55;15.70;99.90
2112;DHT22;1062;52.538;13.400;2023-05-02T08:33:21;15.30;99.90
2112;DHT22;1062;52.538;13.400;2023-05-02T08:35:47;15.00;99.90
2112;DHT22;1062;52.538;13.400;2023-05-02T08:38:12;14.60;99.90
2112;DHT22;1062;52.538;13.400;2023-05-02T08:40:38;14.50;99.90
2112;DHT22;1062;52.538;13.400;2023-05-02T08:43:04;14.40;99.90
2112;DHT22;1062;52.538;13.400;2023-05-02T08:45:41;14.40;99.90
2112;DHT22;1062;52.538;13.400;2023-05-02T08:48:08;14.60;99.90
2112;DHT22;1062;52.538;13.400;2023-05-02T08:50:43;14.30;99.90
2112;DHT22;1062;52.538;13.400;2023-05-02T08:53:11;14.50;99.90
2112;DHT22;1062;52.538;13.400;2023-05-02T08:55:39;14.40;99.90
2112;DHT22;1062;52.538;13.400;2023-05-02T08:58:07;14.20;99.90
2112;DHT22;1062;52.538;13.400;2023-05-02T09:00:37;14.10;99.90
2112;DHT22;1062;52.538;13.400;2023-05-02T09:03:29;14.20;99.90
2112;DHT22;1062;52.538;13.400;2023-05-02T09:08:27;14.60;99.90
2112;DHT22;1062;52.538;13.400;2023-05-02T09:10:53;15.00;99.90
2112;DHT22;1062;52.538;13.400;2023-05-02T09:13:40;15.00;99.90
2112;DHT22;1062;52.538;13.400;2023-05-02T09:16:15;14.80;99.90
2112;DHT22;1062;52.538;13.400;2023-05-02T09:18:42;14.70;99.90
2112;DHT22;1062;52.538;13.400;2023-05-02T09:21:10;14.80;99.90
2112;DHT22;1062;52.538;13.400;2023-05-02T09:23:48;15.10;99.90
2112;DHT22;1062;52.538;13.400;2023-05-02T09:26:17;15.60;99.90
2112;DHT22;1062;52.538;13.400;2023-05-02T09:29:03;15.20;99.90
2112;DHT22;1062;52.538;13.400;2023-05-02T09:31:35;15.50;99.90
2112;DHT22;1062;52.538;13.400;2023-05-02T09:34:14;15.60;99.90
2112;DHT22;1062;52.538;13.400;2023-05-02T09:36:44;15.50;99.90
2112;DHT22;1062;52.538;13.400;2023-05-02T09:39:15;15.40;99.90
2112;DHT22;1062;52.538;13.400;2023-05-02T09:41:45;15.10;99.90
2112;DHT22;1062;52.538;13.400;2023-05-02T09:44:13;15.00;99.90
2112;DHT22;1062;52.538;13.400;2023-05-02T09:46:40;14.70;99.90
2112;DHT22;1062;52.538;13.400;2023-05-02T09:49:06;14.80;99.90
2112;DHT22;1062;52.538;13.400;2023-05-02T09:51:33;14.80;99.90
2112;DHT22;1062;52.538;13.400;2023-05-02T09:53:58;15.10;99.90
2112;DHT22;1062;52.538;13.400;2023-05-02T09:56:24;15.30;99.90
2112;DHT22;1062;52.538;13.400;2023-05-02T09:58:50;15.60;99.90
2112;DHT22;1062;52.538;13.400;2023-05-02T10:01:16;15.50;99.90
2112;DHT22;1062;52.538;13.400;2023-05-02T10:03:45;15.10;99.90
2112;DHT22;1062;52.538;13.400;2023-05-02T10:06:12;15.30;99.90
2112;DHT22;1062;52.538;13.400;2023-05-02T10:08:38;16.00;99.90
2112;DHT22;1062;52.538;13.400;2023-05-02T10:11:06;15.50;99.90
2112;DHT22;1062;52.538;13.400;2023-05-02T10:13:33;15.50;99.90
2112;DHT22;1062;52.538;13.400;2023-05-02T10:16:02;15.60;99.90
2112;DHT22;1062;52.538;13.400;2023-05-02T10:18:55;15.20;99.90
2112;DHT22;1062;52.538;13.400;2023-05-02T10:21:26;14.90;99.90
2112;DHT22;1062;52.538;13.400;2023-05-02T10:23:52;15.10;99.90
2112;DHT22;1062;52.538;13.400;2023-05-02T10:26:19;15.20;99.90
2112;DHT22;1062;52.538;13.400;2023-05-02T10:28:48;15.50;99.90
2112;DHT22;1062;52.538;13.400;2023-05-02T10:31:15;15.70;99.90
2112;DHT22;1062;52.538;13.400;2023-05-02T10:33:42;16.40;99.90
2112;DHT22;1062;52.538;13.400;2023-05-02T10:36:08;16.20;99.90
2112;DHT22;1062;52.538;13.400;2023-05-02T10:38:35;16.10;99.90
2112;DHT22;1062;52.538;13.400;2023-05-02T10:41:11;15.40;99.90
2112;DHT22;1062;52.538;13.400;2023-05-02T10:43:38;14.80;99.90
2112;DHT22;1062;52.538;13.400;2023-05-02T10:49:11;14.60;99.90
2112;DHT22;1062;52.538;13.400;2023-05-02T10:51:39;14.50;99.90
2112;DHT22;1062;52.538;13.400;2023-05-02T10:54:24;14.10;99.90
2112;DHT22;1062;52.538;13.400;2023-05-02T10:57:00;14.30;99.90
2112;DHT22;1062;52.538;13.400;2023-05-02T10:59:37;13.90;99.90
2112;DHT22;1062;52.538;13.400;2023-05-02T11:05:06;13.50;99.90
2112;DHT22;1062;52.538;13.400;2023-05-02T11:07:36;13.00;99.90
2112;DHT22;1062;52.538;13.400;2023-05-02T11:10:22;12.90;99.90
2112;DHT22;1062;52.538;13.400;2023-05-02T11:12:52;13.00;99.90
2112;DHT22;1062;52.538;13.400;2023-05-02T11:18:01;12.60;99.90
2112;DHT22;1062;52.538;13.400;2023-05-02T11:20:28;12.30;99.90
2112;DHT22;1062;52.538;13.400;2023-05-02T11:22:55;12.50;99.90
2112;DHT22;1062;52.538;13.400;2023-05-02T11:25:28;12.40;99.90
2112;DHT22;1062;52.538;13.400;2023-05-02T11:27:54;12.90;99.90
2112;DHT22;1062;52.538;13.400;2023-05-02T11:30:39;12.60;99.90
2112;DHT22;1062;52.538;13.400;2023-05-02T11:35:34;12.70;99.90
2112;DHT22;1062;52.538;13.400;2023-05-02T11:38:08;12.70;99.90
2112;DHT22;1062;52.538;13.400;2023-05-02T11:40:34;12.80;99.90
2112;DHT22;1062;52.538;13.400;2023-05-02T11:43:11;13.00;99.90
2112;DHT22;1062;52.538;13.400;2023-05-02T11:45:37;13.00;99.90
2112;DHT22;1062;52.538;13.400;2023-05-02T11:48:11;13.30;99.90
2112;DHT22;1062;52.538;13.400;2023-05-02T11:50:43;13.40;99.90
2112;DHT22;1062;52.538;13.400;2023-05-02T11:53:13;13.50;99.90
2112;DHT22;1062;52.538;13.400;2023-05-02T11:56:02;13.50;99.90
2112;DHT22;1062;52.538;13.400;2023-05-02T11:58:29;13.60;99.90
2112;DHT22;1062;52.538;13.400;2023-05-02T12:00:58;13.40;99.90
2112;DHT22;1062;52.538;13.400;2023-05-02T12:03:29;13.50;99.90
2112;DHT22;1062;52.538;13.400;2023-05-02T12:05:56;13.70;99.90
2112;DHT22;1062;52.538;13.400;2023-05-02T12:08:24;13.30;99.90
2112;DHT22;1062;52.538;13.400;2023-05-02T12:10:51;13.10;99.90
2112;DHT22;1062;52.538;13.400;2023-05-02T12:13:17;13.00;99.90
2112;DHT22;1062;52.538;13.400;2023-05-02T12:15:43;13.10;99.90
2112;DHT22;1062;52.538;13.400;2023-05-02T12:18:09;13.30;99.90
2112;DHT22;1062;52.538;13.400;2023-05-02T12:20:36;13.50;99.90
2112;DHT22;1062;52.538;13.400;2023-05-02T12:23:03;13.60;99.90
2112;DHT22;1062;52.538;13.400;2023-05-02T12:25:31;13.60;99.90
2112;DHT22;1062;52.538;13.400;2023-05-02T12:28:01;13.80;99.90
2112;DHT22;1062;52.538;13.400;2023-05-02T12:30:28;14.00;99.90
2112;DHT22;1062;52.538;13.400;2023-05-02T12:32:57;14.40;99.90
2112;DHT22;1062;52.538;13.400;2023-05-02T12:35:24;14.60;99.90
2112;DHT22;1062;52.538;13.400;2023-05-02T12:37:50;14.00;99.90
2112;DHT22;1062;52.538;13.400;2023-05-02T12:40:16;14.20;99.90
2112;DHT22;1062;52.538;13.400;2023-05-02T12:42:42;13.90;99.90
2112;DHT22;1062;52.538;13.400;2023-05-02T12:45:17;13.80;99.90
2112;DHT22;1062;52.538;13.400;2023-05-02T12:47:45;14.10;99.90
2112;DHT22;1062;52.538;13.400;2023-05-02T12:50:11;14.10;99.90
2112;DHT22;1062;52.538;13.400;2023-05-02T12:52:49;14.30;99.90
2112;DHT22;1062;52.538;13.400;2023-05-02T12:55:23;14.80;99.90
2112;DHT22;1062;52.538;13.400;2023-05-02T12:57:50;14.80;99.90
2112;DHT22;1062;52.538;13.400;2023-05-02T13:00:16;14.50;99.90
2112;DHT22;1062;52.538;13.400;2023-05-02T13:02:42;13.80;99.90
2112;DHT22;1062;52.538;13.400;2023-05-02T13:05:18;14.10;99.90
2112;DHT22;1062;52.538;13.400;2023-05-02T13:07:43;14.20;99.90
2112;DHT22;1062;52.538;13.400;2023-05-02T13:10:09;14.00;99.90
2112;DHT22;1062;52.538;13.400;2023-05-02T13:12:36;14.00;99.90
2112;DHT22;1062;52.538;13.400;2023-05-02T13:15:03;13.90;99.90
2112;DHT22;1062;52.538;13.400;2023-05-02T13:17:29;13.90;99.90
2112;DHT22;1062;52.538;13.400;2023-05-02T13:19:55;13.70;99.90
2112;DHT22;1062;52.538;13.400;2023-05-02T13:22:20;13.90;99.90
2112;DHT22;1062;52.538;13.400;2023-05-02T13:24:46;13.90;99.90
2112;DHT22;1062;52.538;13.400;2023-05-02T13:27:12;14.00;99.90
2112;DHT22;1062;52.538;13.400;2023-05-02T13:29:37;14.10;99.90
2112;DHT22;1062;52.538;13.400;2023-05-02T13:32:03;13.70;99.90
2112;DHT22;1062;52.538;13.400;2023-05-02T13:34:29;14.00;99.90
2112;DHT22;1062;52.538;13.400;2023-05-02T13:36:55;13.80;99.90
2112;DHT22;1062;52.538;13.400;2023-05-02T13:39:20;13.50;99.90
2112;DHT22;1062;52.538;13.400;2023-05-02T13:41:46;13.70;99.90
2112;DHT22;1062;52.538;13.400;2023-05-02T13:44:12;14.00;99.90
2112;DHT22;1062;52.538;13.400;2023-05-02T13:46:37;14.20;99.90
2112;DHT22;1062;52.538;13.400;2023-05-02T13:49:03;14.10;99.90
2112;DHT22;1062;52.538;13.400;2023-05-02T13:51:29;13.90;99.90
2112;DHT22;1062;52.538;13.400;2023-05-02T13:53:56;14.00;99.90
2112;DHT22;1062;52.538;13.400;2023-05-02T13:56:22;14.10;99.90
2112;DHT22;1062;52.538;13.400;2023-05-02T13:58:48;13.70;99.90
2112;DHT22;1062;52.538;13.400;2023-05-02T14:01:13;13.50;99.90
2112;DHT22;1062;52.538;13.400;2023-05-02T14:03:39;13.60;99.90
2112;DHT22;1062;52.538;13.400;2023-05-02T14:06:04;13.40;99.90
2112;DHT22;1062;52.538;13.400;2023-05-02T14:08:30;13.50;99.90
2112;DHT22;1062;52.538;13.400;2023-05-02T14:10:55;13.50;99.90
2112;DHT22;1062;52.538;13.400;2023-05-02T14:13:21;13.50;99.90
2112;DHT22;1062;52.538;13.400;2023-05-02T14:15:47;13.40;99.90
2112;DHT22;1062;52.538;13.400;2023-05-02T14:18:12;13.80;99.90
2112;DHT22;1062;52.538;13.400;2023-05-02T14:20:38;13.50;99.90
2112;DHT22;1062;52.538;13.400;2023-05-02T14:23:04;13.50;99.90
2112;DHT22;1062;52.538;13.400;2023-05-02T14:25:29;12.90;99.90
2112;DHT22;1062;52.538;13.400;2023-05-02T14:27:55;12.70;99.90
2112;DHT22;1062;52.538;13.400;2023-05-02T14:30:20;13.20;99.90
2112;DHT22;1062;52.538;13.400;2023-05-02T14:32:46;13.30;99.90
2112;DHT22;1062;52.538;13.400;2023-05-02T14:35:11;13.10;99.90
2112;DHT22;1062;52.538;13.400;2023-05-02T14:37:37;12.80;99.90
2112;DHT22;1062;52.538;13.400;2023-05-02T14:40:04;12.90;99.90
2112;DHT22;1062;52.538;13.400;2023-05-02T14:42:30;12.50;99.90
2112;DHT22;1062;52.538;13.400;2023-05-02T14:44:55;12.40;99.90
2112;DHT22;1062;52.538;13.400;2023-05-02T14:47:21;12.60;99.90
2112;DHT22;1062;52.538;13.400;2023-05-02T14:49:47;12.40;99.90
2112;DHT22;1062;52.538;13.400;2023-05-02T14:52:12;12.50;99.90
2112;DHT22;1062;52.538;13.400;2023-05-02T14:54:38;12.40;99.90
2112;DHT22;1062;52.538;13.400;2023-05-02T14:57:03;12.20;99.90
2112;DHT22;1062;52.538;13.400;2023-05-02T14:59:30;12.20;99.90
2112;DHT22;1062;52.538;13.400;2023-05-02T15:01:56;12.00;99.90
2112;DHT22;1062;52.538;13.400;2023-05-02T15:04:21;11.90;99.90
2112;DHT22;1062;52.538;13.400;2023-05-02T15:06:48;11.90;99.90
2112;DHT22;1062;52.538;13.400;2023-05-02T15:09:14;11.90;99.90
2112;DHT22;1062;52.538;13.400;2023-05-02T15:11:40;12.20;99.90
2112;DHT22;1062;52.538;13.400;2023-05-02T15:14:06;12.10;99.90
2112;DHT22;1062;52.538;13.400;2023-05-02T15:16:32;11.70;99.90
2112;DHT22;1062;52.538;13.400;2023-05-02T15:18:57;11.40;99.90
2112;DHT22;1062;52.538;13.400;2023-05-02T15:21:23;11.10;99.90
2112;DHT22;1062;52.538;13.400;2023-05-02T15:23:49;11.10;99.90
2112;DHT22;1062;52.538;13.400;2023-05-02T15:26:14;11.40;99.90
2112;DHT22;1062;52.538;13.400;2023-05-02T15:28:40;11.50;99.90
2112;DHT22;1062;52.538;13.400;2023-05-02T15:31:05;11.80;99.90
2112;DHT22;1062;52.538;13.400;2023-05-02T15:33:31;12.00;99.90
2112;DHT22;1062;52.538;13.400;2023-05-02T15:35:57;11.30;99.90
2112;DHT22;1062;52.538;13.400;2023-05-02T15:38:23;11.30;99.90
2112;DHT22;1062;52.538;13.400;2023-05-02T15:40:57;11.40;99.90
2112;DHT22;1062;52.538;13.400;2023-05-02T15:43:24;11.10;99.90
2112;DHT22;1062;52.538;13.400;2023-05-02T15:45:53;11.10;99.90
2112;DHT22;1062;52.538;13.400;2023-05-02T15:48:20;11.00;99.90
2112;DHT22;1062;52.538;13.400;2023-05-02T15:50:46;11.20;99.90
2112;DHT22;1062;52.538;13.400;2023-05-02T15:53:13;11.30;99.90
2112;DHT22;1062;52.538;13.400;2023-05-02T15:55:40;11.50;99.90
2112;DHT22;1062;52.538;13.400;2023-05-02T15:58:06;11.50;99.90
2112;DHT22;1062;52.538;13.400;2023-05-02T16:00:31;11.50;99.90
2112;DHT22;1062;52.538;13.400;2023-05-02T16:02:57;11.60;99.90
2112;DHT22;1062;52.538;13.400;2023-05-02T16:05:22;11.60;99.90
2112;DHT22;1062;52.538;13.400;2023-05-02T16:07:48;11.80;99.90
2112;DHT22;1062;52.538;13.400;2023-05-02T16:10:13;11.70;99.90
2112;DHT22;1062;52.538;13.400;2023-05-02T16:12:39;11.70;99.90
2112;DHT22;1062;52.538;13.400;2023-05-02T16:15:05;11.90;99.90
2112;DHT22;1062;52.538;13.400;2023-05-02T16:17:32;11.80;99.90
2112;DHT22;1062;52.538;13.400;2023-05-02T16:19:58;11.80;99.90
2112;DHT22;1062;52.538;13.400;2023-05-02T16:22:24;11.80;99.90
2112;DHT22;1062;52.538;13.400;2023-05-02T16:24:50;11.90;99.90
2112;DHT22;1062;52.538;13.400;2023-05-02T16:27:15;11.80;99.90